DNO402 HKJK-HDAM
Flight info
| Callsign | DNO402 |
|---|---|
| Flight time | 2h 4m |
| Altitude | 37000 |
| Route | ATUDU1D WAV UM997 ASTAR ASTAR1U |
| Aircraft | A321/M-SDE3FGHIRWY/LB1 |
Departure
| Time | 2026-04-26 17:09 |
|---|---|
| Airport | Jomo Kenyatta International Airport (HKJK) |
Arrival
| Time | 2026-04-26 19:13 |
|---|---|
| Airport | Djibouti-Ambouli Airport (HDAM) |
| Time | Latitude | Longitude | Altitude | Speed | Heading |
|---|---|---|---|---|---|
| 2026-04-26 16:23 | -1.33003 | 36.92324 | 5330 ft | 0 kts | 103° |
| 2026-04-26 16:58 | -1.32996 | 36.92289 | 5335 ft | 4 kts | 98° |
| 2026-04-26 16:59 | -1.32993 | 36.92263 | 5331 ft | 4 kts | 91° |
| 2026-04-26 16:59 | -1.33006 | 36.92218 | 5336 ft | 2 kts | 15° |
| 2026-04-26 17:00 | -1.33008 | 36.92218 | 5326 ft | 0 kts | 13° |
| 2026-04-26 17:02 | -1.33003 | 36.92219 | 5326 ft | 1 kts | 13° |
| 2026-04-26 17:02 | -1.32978 | 36.92225 | 5344 ft | 7 kts | 15° |
| 2026-04-26 17:03 | -1.32914 | 36.92249 | 5351 ft | 10 kts | 25° |
| 2026-04-26 17:03 | -1.32852 | 36.92251 | 5350 ft | 9 kts | 331° |
| 2026-04-26 17:03 | -1.32796 | 36.92209 | 5349 ft | 11 kts | 316° |
| 2026-04-26 17:03 | -1.32792 | 36.92145 | 5347 ft | 9 kts | 244° |
| 2026-04-26 17:04 | -1.32821 | 36.92103 | 5347 ft | 6 kts | 235° |
| 2026-04-26 17:04 | -1.32839 | 36.92073 | 5349 ft | 4 kts | 248° |
| 2026-04-26 17:04 | -1.32837 | 36.92023 | 5351 ft | 10 kts | 278° |
| 2026-04-26 17:04 | -1.32820 | 36.91935 | 5349 ft | 13 kts | 280° |
| 2026-04-26 17:05 | -1.32814 | 36.91855 | 5348 ft | 10 kts | 260° |
| 2026-04-26 17:05 | -1.32854 | 36.91791 | 5351 ft | 12 kts | 237° |
| 2026-04-26 17:05 | -1.32851 | 36.91722 | 5353 ft | 9 kts | 316° |
| 2026-04-26 17:05 | -1.32810 | 36.91686 | 5353 ft | 9 kts | 320° |
| 2026-04-26 17:06 | -1.32741 | 36.91659 | 5353 ft | 12 kts | 20° |
| 2026-04-26 17:06 | -1.32708 | 36.91698 | 5354 ft | 0 kts | 54° |
| 2026-04-26 17:06 | -1.32707 | 36.91700 | 5353 ft | 0 kts | 54° |
| 2026-04-26 17:08 | -1.32702 | 36.91706 | 5350 ft | 5 kts | 54° |
| 2026-04-26 17:08 | -1.32580 | 36.91876 | 5347 ft | 63 kts | 53° |
| 2026-04-26 17:09 | -1.32200 | 36.92398 | 5336 ft | 120 kts | 54° |
| 2026-04-26 17:09 | -1.32024 | 36.92642 | 5335 ft | 137 kts | 54° |
| 2026-04-26 17:09 | -1.30874 | 36.94235 | 5425 ft | 191 kts | 54° |
| 2026-04-26 17:09 | -1.30375 | 36.94919 | 5971 ft | 181 kts | 55° |
| 2026-04-26 17:10 | -1.29611 | 36.95914 | 6613 ft | 181 kts | 53° |
| 2026-04-26 17:10 | -1.29010 | 36.97020 | 7026 ft | 190 kts | 81° |
| 2026-04-26 17:10 | -1.29033 | 36.98385 | 7207 ft | 203 kts | 98° |
| 2026-04-26 17:10 | -1.29272 | 36.99820 | 7324 ft | 216 kts | 100° |
| 2026-04-26 17:11 | -1.29551 | 37.01341 | 7449 ft | 229 kts | 101° |
| 2026-04-26 17:11 | -1.29826 | 37.02970 | 7567 ft | 247 kts | 95° |
| 2026-04-26 17:11 | -1.29745 | 37.04747 | 7683 ft | 268 kts | 84° |
| 2026-04-26 17:11 | -1.29469 | 37.06635 | 8069 ft | 279 kts | 81° |
| 2026-04-26 17:12 | -1.28720 | 37.10489 | 9265 ft | 286 kts | 80° |
| 2026-04-26 17:12 | -1.28356 | 37.12454 | 9820 ft | 289 kts | 81° |
| 2026-04-26 17:13 | -1.27090 | 37.16265 | 10650 ft | 304 kts | 55° |
| 2026-04-26 17:13 | -1.25678 | 37.17920 | 10766 ft | 322 kts | 47° |
| 2026-04-26 17:13 | -1.22196 | 37.21117 | 11005 ft | 356 kts | 42° |
| 2026-04-26 17:14 | -1.20298 | 37.22790 | 11120 ft | 372 kts | 43° |
| 2026-04-26 17:14 | -1.16402 | 37.26371 | 11782 ft | 389 kts | 44° |
| 2026-04-26 17:14 | -1.14439 | 37.28245 | 12290 ft | 392 kts | 45° |
| 2026-04-26 17:15 | -1.10512 | 37.32066 | 13235 ft | 396 kts | 45° |
| 2026-04-26 17:15 | -1.08539 | 37.33996 | 13693 ft | 398 kts | 45° |
| 2026-04-26 17:15 | -1.06552 | 37.35936 | 14119 ft | 401 kts | 45° |
| 2026-04-26 17:16 | -1.04546 | 37.37887 | 14523 ft | 403 kts | 45° |
| 2026-04-26 17:16 | -1.02533 | 37.39840 | 14905 ft | 405 kts | 45° |
| 2026-04-26 17:16 | -1.00504 | 37.41802 | 15286 ft | 406 kts | 45° |
| 2026-04-26 17:16 | -0.98463 | 37.43771 | 15656 ft | 408 kts | 44° |
| 2026-04-26 17:17 | -0.96416 | 37.45744 | 16021 ft | 410 kts | 45° |
| 2026-04-26 17:17 | -0.94359 | 37.47732 | 16381 ft | 412 kts | 45° |
| 2026-04-26 17:17 | -0.92220 | 37.49648 | 16765 ft | 413 kts | 40° |
| 2026-04-26 17:17 | -0.90010 | 37.51441 | 17123 ft | 415 kts | 39° |
| 2026-04-26 17:18 | -0.87738 | 37.53237 | 17416 ft | 418 kts | 39° |
| 2026-04-26 17:18 | -0.85409 | 37.55051 | 17787 ft | 420 kts | 38° |
| 2026-04-26 17:18 | -0.83093 | 37.56846 | 18133 ft | 422 kts | 38° |
| 2026-04-26 17:18 | -0.80776 | 37.58643 | 18453 ft | 423 kts | 38° |
| 2026-04-26 17:19 | -0.76147 | 37.62265 | 18998 ft | 426 kts | 39° |
| 2026-04-26 17:19 | -0.73814 | 37.64103 | 19275 ft | 428 kts | 39° |
| 2026-04-26 17:19 | -0.71468 | 37.65951 | 19554 ft | 430 kts | 39° |
| 2026-04-26 17:20 | -0.69115 | 37.67806 | 19838 ft | 431 kts | 39° |
| 2026-04-26 17:20 | -0.67554 | 37.69035 | 20017 ft | 432 kts | 39° |
| 2026-04-26 17:20 | -0.64384 | 37.71528 | 20399 ft | 434 kts | 39° |
| 2026-04-26 17:20 | -0.62007 | 37.73397 | 20661 ft | 436 kts | 39° |
| 2026-04-26 17:21 | -0.59624 | 37.75271 | 20933 ft | 437 kts | 39° |
| 2026-04-26 17:21 | -0.57230 | 37.77153 | 21208 ft | 439 kts | 39° |
| 2026-04-26 17:21 | -0.54825 | 37.79045 | 21478 ft | 440 kts | 39° |
| 2026-04-26 17:21 | -0.52415 | 37.80939 | 21742 ft | 441 kts | 39° |
| 2026-04-26 17:22 | -0.49998 | 37.82837 | 21986 ft | 443 kts | 39° |
| 2026-04-26 17:22 | -0.47571 | 37.84744 | 22241 ft | 444 kts | 39° |
| 2026-04-26 17:22 | -0.45141 | 37.86655 | 22496 ft | 445 kts | 39° |
| 2026-04-26 17:22 | -0.42732 | 37.88550 | 22738 ft | 447 kts | 39° |
| 2026-04-26 17:23 | -0.40285 | 37.90472 | 22980 ft | 448 kts | 39° |
| 2026-04-26 17:23 | -0.37829 | 37.92400 | 23197 ft | 450 kts | 39° |
| 2026-04-26 17:23 | -0.35359 | 37.94341 | 23426 ft | 451 kts | 39° |
| 2026-04-26 17:23 | -0.32891 | 37.96282 | 23647 ft | 452 kts | 39° |
| 2026-04-26 17:24 | -0.30415 | 37.98228 | 23869 ft | 453 kts | 39° |
| 2026-04-26 17:24 | -0.27939 | 38.00173 | 24045 ft | 454 kts | 39° |
| 2026-04-26 17:24 | -0.25454 | 38.02129 | 24219 ft | 455 kts | 39° |
| 2026-04-26 17:24 | -0.22965 | 38.04088 | 24409 ft | 457 kts | 39° |
| 2026-04-26 17:25 | -0.20466 | 38.06055 | 24648 ft | 458 kts | 39° |
| 2026-04-26 17:25 | -0.17960 | 38.08026 | 24851 ft | 459 kts | 39° |
| 2026-04-26 17:25 | -0.15438 | 38.10009 | 25005 ft | 461 kts | 39° |
| 2026-04-26 17:25 | -0.12947 | 38.11969 | 25178 ft | 462 kts | 39° |
| 2026-04-26 17:26 | -0.10419 | 38.13956 | 25355 ft | 463 kts | 39° |
| 2026-04-26 17:26 | -0.07884 | 38.15949 | 25522 ft | 465 kts | 39° |
| 2026-04-26 17:26 | -0.05336 | 38.17951 | 25693 ft | 466 kts | 39° |
| 2026-04-26 17:26 | -0.02781 | 38.19958 | 25843 ft | 467 kts | 39° |
| 2026-04-26 17:27 | -0.00219 | 38.21970 | 26033 ft | 468 kts | 39° |
| 2026-04-26 17:27 | 0.02342 | 38.23982 | 26188 ft | 469 kts | 39° |
| 2026-04-26 17:27 | 0.04911 | 38.26000 | 26381 ft | 470 kts | 39° |
| 2026-04-26 17:27 | 0.07488 | 38.28023 | 26615 ft | 470 kts | 39° |
| 2026-04-26 17:28 | 0.10054 | 38.30036 | 26810 ft | 469 kts | 39° |
| 2026-04-26 17:28 | 0.12623 | 38.32051 | 27036 ft | 469 kts | 39° |
| 2026-04-26 17:28 | 0.15183 | 38.34064 | 27253 ft | 468 kts | 39° |
| 2026-04-26 17:28 | 0.17749 | 38.36086 | 27468 ft | 468 kts | 39° |
| 2026-04-26 17:29 | 0.20304 | 38.38101 | 27671 ft | 468 kts | 39° |
| 2026-04-26 17:29 | 0.21997 | 38.39435 | 27810 ft | 468 kts | 39° |
| 2026-04-26 17:29 | 0.25420 | 38.42130 | 28094 ft | 468 kts | 39° |
| 2026-04-26 17:29 | 0.27952 | 38.44118 | 28307 ft | 468 kts | 39° |
| 2026-04-26 17:30 | 0.30508 | 38.46126 | 28518 ft | 468 kts | 39° |
| 2026-04-26 17:30 | 0.33063 | 38.48134 | 28723 ft | 467 kts | 39° |
| 2026-04-26 17:30 | 0.35624 | 38.50150 | 28932 ft | 467 kts | 39° |
| 2026-04-26 17:30 | 0.38178 | 38.52157 | 29138 ft | 467 kts | 39° |
| 2026-04-26 17:31 | 0.40732 | 38.54162 | 29337 ft | 467 kts | 39° |
| 2026-04-26 17:31 | 0.43287 | 38.56165 | 29533 ft | 467 kts | 39° |
| 2026-04-26 17:31 | 0.45844 | 38.58173 | 29758 ft | 467 kts | 39° |
| 2026-04-26 17:31 | 0.48395 | 38.60179 | 29935 ft | 467 kts | 39° |
| 2026-04-26 17:32 | 0.50950 | 38.62187 | 30116 ft | 467 kts | 39° |
| 2026-04-26 17:32 | 0.53504 | 38.64195 | 30287 ft | 466 kts | 39° |
| 2026-04-26 17:32 | 0.56051 | 38.66199 | 30462 ft | 466 kts | 39° |
| 2026-04-26 17:32 | 0.58601 | 38.68202 | 30662 ft | 465 kts | 39° |
| 2026-04-26 17:33 | 0.61112 | 38.70175 | 30852 ft | 464 kts | 39° |
| 2026-04-26 17:33 | 0.63653 | 38.72176 | 31072 ft | 463 kts | 39° |
| 2026-04-26 17:33 | 0.66185 | 38.74172 | 31267 ft | 463 kts | 39° |
| 2026-04-26 17:34 | 0.71234 | 38.78149 | 31659 ft | 462 kts | 39° |
| 2026-04-26 17:34 | 0.73756 | 38.80133 | 31855 ft | 461 kts | 39° |
| 2026-04-26 17:34 | 0.76282 | 38.82116 | 32056 ft | 461 kts | 39° |
| 2026-04-26 17:34 | 0.78801 | 38.84094 | 32247 ft | 461 kts | 39° |
| 2026-04-26 17:35 | 0.81317 | 38.86074 | 32453 ft | 460 kts | 39° |
| 2026-04-26 17:35 | 0.83830 | 38.88052 | 32640 ft | 460 kts | 39° |
| 2026-04-26 17:35 | 0.86345 | 38.90029 | 32841 ft | 459 kts | 39° |
| 2026-04-26 17:35 | 0.88857 | 38.92001 | 33032 ft | 459 kts | 38° |
| 2026-04-26 17:36 | 0.91371 | 38.93975 | 33232 ft | 459 kts | 39° |
| 2026-04-26 17:36 | 0.93848 | 38.95920 | 33443 ft | 458 kts | 39° |
| 2026-04-26 17:36 | 0.96386 | 38.97917 | 33644 ft | 457 kts | 39° |
| 2026-04-26 17:36 | 0.98847 | 38.99857 | 33840 ft | 457 kts | 39° |
| 2026-04-26 17:37 | 1.01339 | 39.01821 | 34026 ft | 456 kts | 39° |
| 2026-04-26 17:37 | 1.03829 | 39.03780 | 34207 ft | 455 kts | 39° |
| 2026-04-26 17:37 | 1.06315 | 39.05736 | 34390 ft | 455 kts | 39° |
| 2026-04-26 17:38 | 1.11280 | 39.09638 | 34752 ft | 453 kts | 38° |
| 2026-04-26 17:38 | 1.13760 | 39.11583 | 34931 ft | 452 kts | 38° |
| 2026-04-26 17:38 | 1.16232 | 39.13521 | 35112 ft | 452 kts | 38° |
| 2026-04-26 17:38 | 1.18704 | 39.15460 | 35279 ft | 451 kts | 38° |
| 2026-04-26 17:39 | 1.21171 | 39.17398 | 35473 ft | 450 kts | 39° |
| 2026-04-26 17:39 | 1.23632 | 39.19334 | 35646 ft | 449 kts | 39° |
| 2026-04-26 17:39 | 1.26083 | 39.21265 | 35822 ft | 449 kts | 39° |
| 2026-04-26 17:39 | 1.28535 | 39.23196 | 35992 ft | 448 kts | 39° |
| 2026-04-26 17:40 | 1.30978 | 39.25121 | 36163 ft | 447 kts | 39° |
| 2026-04-26 17:40 | 1.32594 | 39.26393 | 36267 ft | 446 kts | 39° |
| 2026-04-26 17:40 | 1.35856 | 39.28963 | 36482 ft | 446 kts | 39° |
| 2026-04-26 17:40 | 1.38259 | 39.30858 | 36631 ft | 445 kts | 39° |
| 2026-04-26 17:41 | 1.40692 | 39.32774 | 36788 ft | 444 kts | 39° |
| 2026-04-26 17:41 | 1.43131 | 39.34690 | 36907 ft | 444 kts | 38° |
| 2026-04-26 17:41 | 1.47989 | 39.38506 | 36927 ft | 444 kts | 39° |
| 2026-04-26 17:42 | 1.52848 | 39.42325 | 36931 ft | 445 kts | 39° |
| 2026-04-26 17:42 | 1.57718 | 39.46159 | 36933 ft | 445 kts | 39° |
| 2026-04-26 17:43 | 1.62582 | 39.49983 | 36938 ft | 445 kts | 39° |
| 2026-04-26 17:43 | 1.67447 | 39.53815 | 36939 ft | 445 kts | 39° |
| 2026-04-26 17:44 | 1.72283 | 39.57636 | 36944 ft | 446 kts | 39° |
| 2026-04-26 17:44 | 1.77159 | 39.61474 | 36942 ft | 446 kts | 38° |
| 2026-04-26 17:45 | 1.82044 | 39.65312 | 36944 ft | 447 kts | 38° |
| 2026-04-26 17:45 | 1.86942 | 39.69173 | 36947 ft | 448 kts | 38° |
| 2026-04-26 17:46 | 1.91842 | 39.73025 | 36953 ft | 448 kts | 38° |
| 2026-04-26 17:46 | 1.96743 | 39.76883 | 36959 ft | 448 kts | 38° |
| 2026-04-26 17:47 | 2.00023 | 39.79468 | 36966 ft | 448 kts | 38° |
| 2026-04-26 17:47 | 2.06550 | 39.84605 | 36968 ft | 449 kts | 38° |
| 2026-04-26 17:48 | 2.11428 | 39.88451 | 36967 ft | 449 kts | 38° |
| 2026-04-26 17:48 | 2.16340 | 39.92321 | 36967 ft | 450 kts | 38° |
| 2026-04-26 17:49 | 2.21254 | 39.96197 | 36973 ft | 450 kts | 38° |
| 2026-04-26 17:49 | 2.26169 | 40.00078 | 36980 ft | 450 kts | 38° |
| 2026-04-26 17:50 | 2.31086 | 40.03957 | 36979 ft | 450 kts | 38° |
| 2026-04-26 17:50 | 2.36005 | 40.07828 | 36987 ft | 449 kts | 39° |
| 2026-04-26 17:51 | 2.40913 | 40.11696 | 37000 ft | 448 kts | 39° |
| 2026-04-26 17:51 | 2.45802 | 40.15553 | 36999 ft | 447 kts | 39° |
| 2026-04-26 17:52 | 2.50676 | 40.19399 | 36994 ft | 446 kts | 39° |
| 2026-04-26 17:52 | 2.55644 | 40.23119 | 36990 ft | 446 kts | 31° |
| 2026-04-26 17:53 | 2.61409 | 40.25352 | 36995 ft | 447 kts | 14° |
| 2026-04-26 17:54 | 2.70470 | 40.27451 | 36995 ft | 447 kts | 15° |
| 2026-04-26 17:54 | 2.76528 | 40.28888 | 36993 ft | 447 kts | 15° |
| 2026-04-26 17:55 | 2.82586 | 40.30324 | 36998 ft | 447 kts | 15° |
| 2026-04-26 17:55 | 2.88645 | 40.31749 | 36994 ft | 447 kts | 15° |
| 2026-04-26 17:56 | 2.94704 | 40.33175 | 36998 ft | 447 kts | 15° |
| 2026-04-26 17:57 | 3.06787 | 40.36023 | 36999 ft | 447 kts | 15° |
| 2026-04-26 17:57 | 3.12848 | 40.37446 | 36998 ft | 447 kts | 15° |
| 2026-04-26 17:58 | 3.23950 | 40.40066 | 36997 ft | 447 kts | 14° |
| 2026-04-26 17:59 | 3.33049 | 40.42212 | 36996 ft | 448 kts | 14° |
| 2026-04-26 17:59 | 3.39118 | 40.43639 | 37004 ft | 448 kts | 14° |
| 2026-04-26 18:00 | 3.45200 | 40.45070 | 37006 ft | 448 kts | 14° |
| 2026-04-26 18:00 | 3.51277 | 40.46505 | 37015 ft | 449 kts | 14° |
| 2026-04-26 18:01 | 3.57315 | 40.47930 | 37019 ft | 448 kts | 14° |
| 2026-04-26 18:01 | 3.63386 | 40.49360 | 37019 ft | 448 kts | 14° |
| 2026-04-26 18:02 | 3.68481 | 40.50562 | 37018 ft | 448 kts | 14° |
| 2026-04-26 18:02 | 3.75538 | 40.52222 | 37024 ft | 448 kts | 14° |
| 2026-04-26 18:03 | 3.81619 | 40.53655 | 37027 ft | 448 kts | 14° |
| 2026-04-26 18:03 | 3.87692 | 40.55087 | 37027 ft | 448 kts | 14° |
| 2026-04-26 18:04 | 3.93763 | 40.56516 | 37030 ft | 448 kts | 14° |
| 2026-04-26 18:05 | 4.02861 | 40.58652 | 37034 ft | 448 kts | 14° |
| 2026-04-26 18:05 | 4.08945 | 40.59999 | 37030 ft | 449 kts | 13° |
| 2026-04-26 18:06 | 4.15065 | 40.61316 | 37024 ft | 455 kts | 13° |
| 2026-04-26 18:06 | 4.21295 | 40.62671 | 37028 ft | 460 kts | 13° |
| 2026-04-26 18:07 | 4.27564 | 40.64055 | 37028 ft | 462 kts | 13° |
| 2026-04-26 18:07 | 4.33835 | 40.65445 | 37016 ft | 462 kts | 13° |
| 2026-04-26 18:08 | 4.40117 | 40.66835 | 37021 ft | 462 kts | 13° |
| 2026-04-26 18:08 | 4.46416 | 40.68223 | 37029 ft | 463 kts | 13° |
| 2026-04-26 18:09 | 4.52722 | 40.69609 | 37042 ft | 464 kts | 13° |
| 2026-04-26 18:09 | 4.59033 | 40.70995 | 37038 ft | 464 kts | 13° |
| 2026-04-26 18:10 | 4.65340 | 40.72385 | 37047 ft | 464 kts | 13° |
| 2026-04-26 18:10 | 4.71646 | 40.73777 | 37048 ft | 464 kts | 13° |
| 2026-04-26 18:11 | 4.77958 | 40.75176 | 37056 ft | 464 kts | 13° |
| 2026-04-26 18:11 | 4.84268 | 40.76567 | 37054 ft | 465 kts | 13° |
| 2026-04-26 18:12 | 4.90578 | 40.77958 | 37052 ft | 464 kts | 13° |
| 2026-04-26 18:12 | 4.96889 | 40.79359 | 37051 ft | 464 kts | 13° |
| 2026-04-26 18:13 | 5.03210 | 40.80751 | 37047 ft | 464 kts | 13° |
| 2026-04-26 18:13 | 5.09478 | 40.82131 | 37050 ft | 464 kts | 13° |
| 2026-04-26 18:14 | 5.15797 | 40.83534 | 37055 ft | 465 kts | 14° |
| 2026-04-26 18:14 | 5.22113 | 40.84942 | 37050 ft | 465 kts | 13° |
| 2026-04-26 18:15 | 5.28442 | 40.86339 | 37047 ft | 465 kts | 13° |
| 2026-04-26 18:15 | 5.34762 | 40.87738 | 37038 ft | 465 kts | 13° |
| 2026-04-26 18:16 | 5.41085 | 40.89142 | 37038 ft | 465 kts | 13° |
| 2026-04-26 18:16 | 5.50556 | 40.91252 | 37030 ft | 465 kts | 13° |
| 2026-04-26 18:17 | 5.56881 | 40.92653 | 37017 ft | 464 kts | 13° |
| 2026-04-26 18:17 | 5.63188 | 40.94051 | 37017 ft | 464 kts | 13° |
| 2026-04-26 18:18 | 5.69499 | 40.95457 | 37013 ft | 464 kts | 13° |
| 2026-04-26 18:18 | 5.75771 | 40.96850 | 37017 ft | 465 kts | 13° |
| 2026-04-26 18:19 | 5.82091 | 40.98251 | 37014 ft | 465 kts | 13° |
| 2026-04-26 18:19 | 5.88415 | 40.99649 | 37022 ft | 466 kts | 13° |
| 2026-04-26 18:20 | 5.94751 | 41.01057 | 37012 ft | 466 kts | 13° |
| 2026-04-26 18:20 | 6.00009 | 41.02229 | 37021 ft | 466 kts | 13° |
| 2026-04-26 18:21 | 6.07418 | 41.03881 | 37026 ft | 466 kts | 13° |
| 2026-04-26 18:21 | 6.13752 | 41.05287 | 37029 ft | 466 kts | 13° |
| 2026-04-26 18:22 | 6.20087 | 41.06697 | 37039 ft | 467 kts | 13° |
| 2026-04-26 18:22 | 6.26429 | 41.08110 | 37037 ft | 467 kts | 13° |
| 2026-04-26 18:23 | 6.32780 | 41.09519 | 37033 ft | 467 kts | 13° |
| 2026-04-26 18:23 | 6.39093 | 41.10917 | 37037 ft | 467 kts | 13° |
| 2026-04-26 18:24 | 6.45439 | 41.12337 | 37038 ft | 467 kts | 13° |
| 2026-04-26 18:24 | 6.51793 | 41.13753 | 37041 ft | 467 kts | 13° |
| 2026-04-26 18:25 | 6.58140 | 41.15169 | 37044 ft | 467 kts | 13° |
| 2026-04-26 18:25 | 6.64490 | 41.16590 | 37043 ft | 467 kts | 13° |
| 2026-04-26 18:26 | 6.70843 | 41.18013 | 37037 ft | 468 kts | 13° |
| 2026-04-26 18:26 | 6.77208 | 41.19443 | 37044 ft | 468 kts | 13° |
| 2026-04-26 18:27 | 6.83574 | 41.20865 | 37041 ft | 469 kts | 13° |
| 2026-04-26 18:27 | 6.89939 | 41.22288 | 37047 ft | 469 kts | 13° |
| 2026-04-26 18:28 | 6.96272 | 41.23708 | 37049 ft | 469 kts | 13° |
| 2026-04-26 18:28 | 7.02655 | 41.25144 | 37054 ft | 470 kts | 13° |
| 2026-04-26 18:29 | 7.09043 | 41.26574 | 37043 ft | 470 kts | 13° |
| 2026-04-26 18:29 | 7.15423 | 41.28001 | 37041 ft | 469 kts | 13° |
| 2026-04-26 18:30 | 7.21797 | 41.29431 | 37043 ft | 469 kts | 13° |
| 2026-04-26 18:30 | 7.28169 | 41.30866 | 37043 ft | 469 kts | 13° |
| 2026-04-26 18:31 | 7.34500 | 41.32297 | 37050 ft | 469 kts | 13° |
| 2026-04-26 18:31 | 7.40880 | 41.33727 | 37046 ft | 469 kts | 13° |
| 2026-04-26 18:32 | 7.47242 | 41.35150 | 37046 ft | 468 kts | 13° |
| 2026-04-26 18:32 | 7.53585 | 41.36582 | 37049 ft | 467 kts | 13° |
| 2026-04-26 18:33 | 7.59926 | 41.38007 | 37053 ft | 466 kts | 13° |
| 2026-04-26 18:33 | 7.66264 | 41.39432 | 37053 ft | 466 kts | 14° |
| 2026-04-26 18:34 | 7.72603 | 41.40863 | 37049 ft | 466 kts | 13° |
| 2026-04-26 18:34 | 7.78893 | 41.42287 | 37052 ft | 466 kts | 13° |
| 2026-04-26 18:35 | 7.85229 | 41.43719 | 37044 ft | 466 kts | 13° |
| 2026-04-26 18:35 | 7.91569 | 41.45146 | 37050 ft | 467 kts | 13° |
| 2026-04-26 18:36 | 7.97903 | 41.46575 | 37041 ft | 467 kts | 13° |
| 2026-04-26 18:36 | 8.04249 | 41.48002 | 37047 ft | 467 kts | 13° |
| 2026-04-26 18:37 | 8.10587 | 41.49427 | 37045 ft | 467 kts | 13° |
| 2026-04-26 18:37 | 8.16928 | 41.50865 | 37046 ft | 466 kts | 13° |
| 2026-04-26 18:38 | 8.23256 | 41.52299 | 37042 ft | 466 kts | 13° |
| 2026-04-26 18:38 | 8.29582 | 41.53730 | 37042 ft | 466 kts | 13° |
| 2026-04-26 18:39 | 8.35871 | 41.55155 | 37033 ft | 466 kts | 13° |
| 2026-04-26 18:39 | 8.42194 | 41.56585 | 37034 ft | 466 kts | 13° |
| 2026-04-26 18:40 | 8.48523 | 41.58015 | 37041 ft | 466 kts | 13° |
| 2026-04-26 18:40 | 8.54865 | 41.59454 | 37044 ft | 467 kts | 13° |
| 2026-04-26 18:41 | 8.61196 | 41.60895 | 37046 ft | 467 kts | 13° |
| 2026-04-26 18:41 | 8.67534 | 41.62341 | 37049 ft | 467 kts | 13° |
| 2026-04-26 18:42 | 8.73874 | 41.63783 | 37058 ft | 467 kts | 13° |
| 2026-04-26 18:42 | 8.80214 | 41.65223 | 37063 ft | 467 kts | 13° |
| 2026-04-26 18:43 | 8.86558 | 41.66668 | 37077 ft | 467 kts | 13° |
| 2026-04-26 18:43 | 8.92902 | 41.68115 | 37078 ft | 467 kts | 13° |
| 2026-04-26 18:44 | 8.98171 | 41.69317 | 37092 ft | 467 kts | 13° |
| 2026-04-26 18:44 | 9.04518 | 41.70762 | 37093 ft | 467 kts | 13° |
| 2026-04-26 18:45 | 9.10869 | 41.72208 | 37109 ft | 467 kts | 13° |
| 2026-04-26 18:45 | 9.17216 | 41.73653 | 37110 ft | 467 kts | 13° |
| 2026-04-26 18:46 | 9.23521 | 41.75088 | 37119 ft | 467 kts | 13° |
| 2026-04-26 18:46 | 9.29863 | 41.76535 | 37113 ft | 467 kts | 13° |
| 2026-04-26 18:47 | 9.36202 | 41.77983 | 37119 ft | 467 kts | 13° |
| 2026-04-26 18:47 | 9.42539 | 41.79438 | 37109 ft | 466 kts | 13° |
| 2026-04-26 18:48 | 9.48854 | 41.80880 | 37087 ft | 465 kts | 13° |
| 2026-04-26 18:48 | 9.55173 | 41.82322 | 37082 ft | 465 kts | 13° |
| 2026-04-26 18:49 | 9.61436 | 41.83757 | 37057 ft | 464 kts | 15° |
| 2026-04-26 18:49 | 9.67310 | 41.86372 | 37058 ft | 463 kts | 33° |
| 2026-04-26 18:50 | 9.72690 | 41.89974 | 37028 ft | 463 kts | 33° |
| 2026-04-26 18:50 | 9.78069 | 41.93551 | 37026 ft | 463 kts | 33° |
| 2026-04-26 18:51 | 9.83455 | 41.97127 | 37006 ft | 463 kts | 33° |
| 2026-04-26 18:51 | 9.88834 | 42.00708 | 37003 ft | 463 kts | 33° |
| 2026-04-26 18:52 | 9.94218 | 42.04295 | 36996 ft | 463 kts | 33° |
| 2026-04-26 18:52 | 9.99595 | 42.07885 | 36980 ft | 463 kts | 33° |
| 2026-04-26 18:53 | 10.04981 | 42.11472 | 36978 ft | 463 kts | 33° |
| 2026-04-26 18:53 | 10.10328 | 42.15034 | 36978 ft | 463 kts | 33° |
| 2026-04-26 18:54 | 10.15721 | 42.18632 | 36978 ft | 463 kts | 33° |
| 2026-04-26 18:54 | 10.21105 | 42.22226 | 36980 ft | 463 kts | 33° |
| 2026-04-26 18:55 | 10.26485 | 42.25813 | 36977 ft | 463 kts | 33° |
| 2026-04-26 18:55 | 10.31867 | 42.29413 | 36986 ft | 463 kts | 33° |
| 2026-04-26 18:56 | 10.37242 | 42.33007 | 36994 ft | 462 kts | 32° |
| 2026-04-26 18:56 | 10.42569 | 42.36569 | 36894 ft | 462 kts | 32° |
| 2026-04-26 18:57 | 10.45273 | 42.38378 | 35953 ft | 468 kts | 32° |
| 2026-04-26 18:57 | 10.47109 | 42.39607 | 35554 ft | 465 kts | 32° |
| 2026-04-26 18:57 | 10.50689 | 42.42008 | 34481 ft | 469 kts | 32° |
| 2026-04-26 18:57 | 10.53421 | 42.43837 | 33622 ft | 471 kts | 32° |
| 2026-04-26 18:58 | 10.56172 | 42.45676 | 32712 ft | 473 kts | 32° |
| 2026-04-26 18:58 | 10.58931 | 42.47519 | 31832 ft | 475 kts | 33° |
| 2026-04-26 18:58 | 10.61694 | 42.49365 | 31127 ft | 472 kts | 33° |
| 2026-04-26 18:58 | 10.64394 | 42.51167 | 30991 ft | 457 kts | 32° |
| 2026-04-26 18:59 | 10.67153 | 42.52682 | 30865 ft | 444 kts | 26° |
| 2026-04-26 18:59 | 10.69852 | 42.54008 | 30761 ft | 430 kts | 26° |
| 2026-04-26 18:59 | 10.72507 | 42.55311 | 30633 ft | 417 kts | 26° |
| 2026-04-26 18:59 | 10.75081 | 42.56578 | 30486 ft | 406 kts | 27° |
| 2026-04-26 19:00 | 10.77606 | 42.57822 | 30149 ft | 400 kts | 27° |
| 2026-04-26 19:00 | 10.80098 | 42.59052 | 29703 ft | 396 kts | 27° |
| 2026-04-26 19:00 | 10.82608 | 42.60294 | 28583 ft | 408 kts | 27° |
| 2026-04-26 19:00 | 10.85203 | 42.61578 | 27461 ft | 421 kts | 27° |
| 2026-04-26 19:01 | 10.87873 | 42.62896 | 26345 ft | 433 kts | 27° |
| 2026-04-26 19:01 | 10.90627 | 42.64255 | 25234 ft | 444 kts | 27° |
| 2026-04-26 19:01 | 10.93442 | 42.65644 | 24134 ft | 455 kts | 27° |
| 2026-04-26 19:01 | 10.96316 | 42.67063 | 23129 ft | 462 kts | 27° |
| 2026-04-26 19:02 | 10.99224 | 42.68501 | 22043 ft | 466 kts | 27° |
| 2026-04-26 19:02 | 11.02103 | 42.69925 | 21234 ft | 464 kts | 27° |
| 2026-04-26 19:02 | 11.04997 | 42.71357 | 20545 ft | 460 kts | 27° |
| 2026-04-26 19:02 | 11.06933 | 42.72314 | 20103 ft | 456 kts | 27° |
| 2026-04-26 19:03 | 11.10687 | 42.74168 | 19223 ft | 451 kts | 27° |
| 2026-04-26 19:03 | 11.13503 | 42.75559 | 18492 ft | 449 kts | 27° |
| 2026-04-26 19:03 | 11.16305 | 42.76942 | 17755 ft | 445 kts | 27° |
| 2026-04-26 19:03 | 11.19076 | 42.78311 | 17021 ft | 441 kts | 27° |
| 2026-04-26 19:04 | 11.21831 | 42.79673 | 16318 ft | 437 kts | 27° |
| 2026-04-26 19:04 | 11.24550 | 42.81018 | 15630 ft | 433 kts | 27° |
| 2026-04-26 19:04 | 11.27249 | 42.82354 | 14953 ft | 429 kts | 27° |
| 2026-04-26 19:04 | 11.29904 | 42.83670 | 14099 ft | 417 kts | 27° |
| 2026-04-26 19:05 | 11.35034 | 42.86209 | 11121 ft | 403 kts | 27° |
| 2026-04-26 19:05 | 11.37533 | 42.87447 | 9747 ft | 395 kts | 27° |
| 2026-04-26 19:05 | 11.39979 | 42.88659 | 8340 ft | 387 kts | 27° |
| 2026-04-26 19:06 | 11.42413 | 42.89652 | 7026 ft | 379 kts | 14° |
| 2026-04-26 19:06 | 11.44979 | 42.89848 | 6317 ft | 358 kts | 1° |
| 2026-04-26 19:06 | 11.47362 | 42.89857 | 5987 ft | 327 kts | 2° |
| 2026-04-26 19:06 | 11.49530 | 42.89888 | 5801 ft | 297 kts | 3° |
| 2026-04-26 19:07 | 11.51499 | 42.89926 | 5675 ft | 270 kts | 4° |
| 2026-04-26 19:07 | 11.53256 | 42.90145 | 5549 ft | 239 kts | 24° |
| 2026-04-26 19:07 | 11.54503 | 42.91056 | 5263 ft | 211 kts | 54° |
| 2026-04-26 19:07 | 11.55031 | 42.92370 | 4937 ft | 191 kts | 84° |
| 2026-04-26 19:08 | 11.55031 | 42.93628 | 4843 ft | 166 kts | 90° |
| 2026-04-26 19:08 | 11.55014 | 42.94740 | 4635 ft | 150 kts | 90° |
| 2026-04-26 19:08 | 11.54999 | 42.95793 | 4260 ft | 147 kts | 90° |
| 2026-04-26 19:08 | 11.54987 | 42.96833 | 3866 ft | 146 kts | 91° |
| 2026-04-26 19:09 | 11.54975 | 42.97873 | 3454 ft | 147 kts | 91° |
| 2026-04-26 19:09 | 11.54963 | 42.98907 | 3096 ft | 145 kts | 92° |
| 2026-04-26 19:09 | 11.54951 | 42.99932 | 2719 ft | 145 kts | 91° |
| 2026-04-26 19:09 | 11.54939 | 43.00943 | 2388 ft | 144 kts | 90° |
| 2026-04-26 19:10 | 11.54926 | 43.01956 | 2015 ft | 143 kts | 91° |
| 2026-04-26 19:10 | 11.54912 | 43.02955 | 1977 ft | 143 kts | 91° |
| 2026-04-26 19:10 | 11.54897 | 43.03992 | 2043 ft | 147 kts | 90° |
| 2026-04-26 19:10 | 11.54883 | 43.05032 | 2078 ft | 147 kts | 91° |
| 2026-04-26 19:11 | 11.54869 | 43.06082 | 2077 ft | 149 kts | 90° |
| 2026-04-26 19:11 | 11.54855 | 43.07142 | 1801 ft | 149 kts | 90° |
| 2026-04-26 19:11 | 11.54843 | 43.08198 | 1463 ft | 147 kts | 90° |
| 2026-04-26 19:11 | 11.54831 | 43.09236 | 1240 ft | 146 kts | 90° |
| 2026-04-26 19:12 | 11.54806 | 43.10273 | 1076 ft | 145 kts | 91° |
| 2026-04-26 19:12 | 11.54787 | 43.11305 | 805 ft | 146 kts | 89° |
| 2026-04-26 19:12 | 11.54796 | 43.12321 | 531 ft | 145 kts | 89° |
| 2026-04-26 19:12 | 11.54775 | 43.13366 | 318 ft | 147 kts | 90° |
| 2026-04-26 19:13 | 11.54747 | 43.14385 | 113 ft | 144 kts | 90° |
| 2026-04-26 19:13 | 11.54742 | 43.15357 | 64 ft | 126 kts | 91° |
| 2026-04-26 19:13 | 11.54731 | 43.16059 | 59 ft | 72 kts | 91° |
| 2026-04-26 19:13 | 11.54727 | 43.16428 | 59 ft | 36 kts | 90° |
| 2026-04-26 19:14 | 11.54724 | 43.16636 | 58 ft | 27 kts | 91° |
| 2026-04-26 19:14 | 11.54721 | 43.16816 | 63 ft | 24 kts | 91° |
| 2026-04-26 19:14 | 11.54718 | 43.16981 | 62 ft | 23 kts | 91° |
| 2026-04-26 19:14 | 11.54716 | 43.17084 | 63 ft | 21 kts | 91° |
| 2026-04-26 19:15 | 11.54713 | 43.17274 | 61 ft | 20 kts | 90° |
| 2026-04-26 19:15 | 11.54682 | 43.17378 | 54 ft | 8 kts | 161° |
| 2026-04-26 19:15 | 11.54637 | 43.17374 | 58 ft | 11 kts | 180° |
| 2026-04-26 19:15 | 11.54544 | 43.17320 | 60 ft | 22 kts | 256° |
| 2026-04-26 19:16 | 11.54546 | 43.17141 | 60 ft | 26 kts | 270° |
| 2026-04-26 19:16 | 11.54548 | 43.16963 | 60 ft | 25 kts | 271° |
| 2026-04-26 19:16 | 11.54552 | 43.16790 | 55 ft | 24 kts | 271° |
| 2026-04-26 19:16 | 11.54554 | 43.16624 | 58 ft | 23 kts | 270° |
| 2026-04-26 19:17 | 11.54545 | 43.16600 | 60 ft | 3 kts | 210° |
| 2026-04-26 19:17 | 11.54541 | 43.16599 | 53 ft | 4 kts | 213° |
| 2026-04-26 19:17 | 11.54545 | 43.16602 | 60 ft | 1 kts | 213° |
| 2026-04-26 19:17 | 11.54547 | 43.16603 | 58 ft | 0 kts | 205° |
| 2026-04-26 19:18 | 11.54474 | 43.16598 | 53 ft | 5 kts | 114° |
| 2026-04-26 19:19 | 11.54479 | 43.16587 | 57 ft | 2 kts | 108° |
| 2026-04-26 19:19 | 11.54480 | 43.16585 | 57 ft | 0 kts | 111° |
| 2026-04-26 19:19 | 11.54477 | 43.16586 | 57 ft | 1 kts | 132° |
| 2026-04-26 19:19 | 11.54478 | 43.16585 | 57 ft | 0 kts | 145° |
| 2026-04-26 19:20 | 11.54477 | 43.16585 | 57 ft | 1 kts | 145° |
| 2026-04-26 19:20 | 11.54476 | 43.16585 | 57 ft | 0 kts | 154° |
| 2026-04-26 19:20 | 11.54477 | 43.16585 | 57 ft | 0 kts | 157° |
| 2026-04-26 19:21 | 11.54493 | 43.16577 | 56 ft | 0 kts | 155° |
| 2026-04-26 19:21 | 11.54474 | 43.16568 | 56 ft | 2 kts | 239° |
| 2026-04-26 19:21 | 11.54481 | 43.16558 | 56 ft | 2 kts | 305° |
| 2026-04-26 19:21 | 11.54512 | 43.16524 | 58 ft | 16 kts | 309° |
| 2026-04-26 19:22 | 11.54555 | 43.16440 | 60 ft | 9 kts | 272° |
| 2026-04-26 19:22 | 11.54555 | 43.16358 | 60 ft | 17 kts | 270° |
| 2026-04-26 19:22 | 11.54557 | 43.16279 | 58 ft | 9 kts | 272° |
| 2026-04-26 19:22 | 11.54559 | 43.16222 | 57 ft | 7 kts | 272° |
| 2026-04-26 19:23 | 11.54560 | 43.16168 | 59 ft | 8 kts | 266° |
| 2026-04-26 19:23 | 11.54560 | 43.16103 | 60 ft | 12 kts | 271° |
| 2026-04-26 19:23 | 11.54561 | 43.16012 | 60 ft | 12 kts | 270° |
| 2026-04-26 19:23 | 11.54562 | 43.15929 | 60 ft | 13 kts | 271° |
| 2026-04-26 19:24 | 11.54565 | 43.15757 | 60 ft | 33 kts | 271° |
| 2026-04-26 19:24 | 11.54567 | 43.15538 | 54 ft | 28 kts | 270° |
| 2026-04-26 19:24 | 11.54569 | 43.15232 | 56 ft | 0 kts | 270° |
| 2026-04-26 19:25 | 11.54570 | 43.15214 | 53 ft | 7 kts | 273° |
| 2026-04-26 19:25 | 11.54571 | 43.15195 | 55 ft | 10 kts | 274° |
| 2026-04-26 19:25 | 11.54687 | 43.15145 | 62 ft | 13 kts | 360° |
| 2026-04-26 19:25 | 11.54785 | 43.15145 | 63 ft | 15 kts | 0° |
| 2026-04-26 19:26 | 11.54908 | 43.15146 | 56 ft | 20 kts | 0° |
| 2026-04-26 19:26 | 11.54967 | 43.15147 | 60 ft | 4 kts | 1° |
| 2026-04-26 19:26 | 11.55001 | 43.15143 | 58 ft | 5 kts | 330° |
| 2026-04-26 19:26 | 11.55004 | 43.15114 | 54 ft | 5 kts | 271° |
| 2026-04-26 19:27 | 11.55005 | 43.15077 | 58 ft | 5 kts | 271° |
| 2026-04-26 19:27 | 11.55006 | 43.15045 | 60 ft | 4 kts | 270° |
| 2026-04-26 19:27 | 11.55009 | 43.15021 | 60 ft | 3 kts | 291° |
| 2026-04-26 19:27 | 11.55020 | 43.15008 | 53 ft | 2 kts | 320° |
| 2026-04-26 19:28 | 11.55029 | 43.15004 | 53 ft | 1 kts | 337° |
| 2026-04-26 19:28 | 11.55040 | 43.15004 | 58 ft | 2 kts | 360° |
| 2026-04-26 19:28 | 11.55061 | 43.15003 | 60 ft | 4 kts | 360° |
| 2026-04-26 19:28 | 11.55090 | 43.15003 | 59 ft | 5 kts | 360° |
| 2026-04-26 19:29 | 11.55125 | 43.15004 | 53 ft | 0 kts | 0° |